Time;durP1;ratioP1;P1;durP2;ratioP2;P2;SDS_P1;SDS_P2;PMS_P1;PMS_P2;Temp;Humidity;BMP_temperature;BMP_pressure;BME280_temperature;BME280_humidity;BME280_pressure;Samples;Min_cycle;Max_cycle;Signal;HPM_P1;HPM_P2
2023/06/09 00:02:04;;;;;;;5.43;5.13;;;22.30;46.30;;;;;;5033966;28;20486;-66
2023/06/09 00:04:32;;;;;;;4.37;4.17;;;22.30;46.20;;;;;;5033572;28;20357;-66
2023/06/09 00:06:58;;;;;;;4.30;4.10;;;22.20;46.10;;;;;;5032879;28;20467;-66
2023/06/09 00:09:24;;;;;;;4.40;4.20;;;22.20;46.10;;;;;;5037585;28;20464;-66
2023/06/09 00:11:50;;;;;;;4.00;3.80;;;22.30;46.20;;;;;;5035338;28;20489;-66
2023/06/09 00:14:16;;;;;;;4.57;4.37;;;22.20;46.10;;;;;;5033207;28;20229;-66
2023/06/09 00:16:48;;;;;;;4.53;4.23;;;22.20;46.20;;;;;;5034802;28;20225;-66
2023/06/09 00:19:16;;;;;;;4.13;3.93;;;22.20;46.10;;;;;;5032880;28;21104;-66
2023/06/09 00:21:44;;;;;;;3.67;3.53;;;22.20;46.20;;;;;;5035049;28;20458;-66
2023/06/09 00:24:10;;;;;;;4.20;4.00;;;22.20;46.20;;;;;;5035226;28;20512;-66
2023/06/09 00:26:35;;;;;;;4.33;4.13;;;22.20;46.20;;;;;;5032945;28;20471;-66
2023/06/09 00:29:01;;;;;;;4.40;4.20;;;22.20;46.20;;;;;;5032812;28;20773;-66
2023/06/09 00:31:27;;;;;;;4.00;3.80;;;22.20;46.20;;;;;;5028765;28;20304;-66
2023/06/09 00:33:52;;;;;;;4.17;3.97;;;22.20;46.20;;;;;;5026833;28;20226;-66
2023/06/09 00:36:18;;;;;;;4.40;4.20;;;22.20;46.20;;;;;;5029742;28;20217;-66
2023/06/09 00:38:43;;;;;;;4.30;4.10;;;22.30;46.30;;;;;;5035261;28;20229;-66
2023/06/09 00:41:09;;;;;;;4.57;4.37;;;22.20;46.20;;;;;;5029613;28;20265;-66
2023/06/09 00:43:34;;;;;;;4.83;4.63;;;22.20;46.30;;;;;;5034707;28;20304;-66
2023/06/09 00:46:03;;;;;;;4.60;4.30;;;22.20;46.30;;;;;;5032662;28;20222;-66
2023/06/09 00:48:29;;;;;;;4.63;4.43;;;22.20;46.30;;;;;;5034625;28;20214;-66
2023/06/09 00:50:55;;;;;;;4.13;3.93;;;22.20;46.30;;;;;;5034281;28;20470;-66
2023/06/09 00:53:23;;;;;;;4.10;3.90;;;22.20;46.30;;;;;;5036219;28;20363;-66
2023/06/09 00:55:49;;;;;;;4.07;3.87;;;22.20;46.30;;;;;;5030224;28;20478;-66
2023/06/09 00:58:16;;;;;;;4.83;4.63;;;22.20;46.30;;;;;;5037528;28;20463;-66
2023/06/09 01:00:41;;;;;;;4.43;4.20;;;22.20;46.30;;;;;;5032272;28;20451;-66
2023/06/09 01:03:10;;;;;;;4.40;4.20;;;22.20;46.30;;;;;;5034706;28;20474;-66
2023/06/09 01:05:36;;;;;;;4.30;4.10;;;22.20;46.30;;;;;;5031991;28;22406;-66
2023/06/09 01:08:15;;;;;;;4.10;3.90;;;22.20;46.40;;;;;;5033635;28;21033;-66
2023/06/09 01:11:07;;;;;;;5.17;4.87;;;22.20;46.30;;;;;;5034177;28;20496;-66
2023/06/09 01:13:42;;;;;;;4.50;4.30;;;22.20;46.30;;;;;;5035621;28;20472;-64
2023/06/09 01:16:17;;;;;;;4.77;4.50;;;22.20;46.30;;;;;;5034641;28;20553;-64
2023/06/09 01:18:45;;;;;;;4.50;4.30;;;22.20;46.40;;;;;;5038629;28;20477;-64
2023/06/09 01:21:42;;;;;;;4.80;4.60;;;22.20;46.40;;;;;;5037494;28;20591;-64
2023/06/09 01:24:58;;;;;;;4.10;3.90;;;22.20;46.40;;;;;;5039807;28;20471;-64
2023/06/09 01:27:25;;;;;;;4.07;3.87;;;22.20;46.50;;;;;;5005471;28;20477;-64
2023/06/09 01:29:53;;;;;;;4.93;4.73;;;22.20;46.60;;;;;;5037760;28;20483;-64
2023/06/09 01:32:20;;;;;;;5.20;4.77;;;22.20;46.60;;;;;;5037728;28;20466;-64
2023/06/09 01:34:46;;;;;;;4.40;4.13;;;22.20;46.60;;;;;;5039418;28;20463;-64
2023/06/09 01:37:13;;;;;;;4.47;4.27;;;22.20;46.50;;;;;;5040451;28;20458;-64
2023/06/09 01:39:39;;;;;;;4.30;4.00;;;22.20;46.40;;;;;;5038695;28;24461;-64
2023/06/09 01:42:06;;;;;;;4.60;4.40;;;22.20;46.50;;;;;;5040942;28;20490;-64
2023/06/09 01:44:34;;;;;;;4.53;4.17;;;22.20;46.60;;;;;;5039766;28;20478;-64
2023/06/09 01:47:01;;;;;;;4.60;4.40;;;22.20;46.50;;;;;;5035265;28;20501;-64
2023/06/09 01:49:44;;;;;;;4.10;3.90;;;22.20;46.60;;;;;;5042434;28;20470;-64
2023/06/09 01:52:25;;;;;;;4.47;4.27;;;22.20;46.50;;;;;;5037969;28;20558;-64
2023/06/09 01:54:58;;;;;;;4.27;4.07;;;22.20;46.60;;;;;;5038602;28;20485;-64
2023/06/09 01:57:33;;;;;;;4.80;4.60;;;22.20;46.60;;;;;;5039113;28;20463;-64
2023/06/09 02:00:04;;;;;;;5.27;4.97;;;22.20;46.60;;;;;;5020942;28;20475;-64
2023/06/09 02:02:32;;;;;;;4.30;4.10;;;22.20;46.60;;;;;;5039299;28;20463;-64
2023/06/09 02:05:00;;;;;;;4.13;3.93;;;22.20;46.60;;;;;;5042515;28;20902;-64
2023/06/09 02:07:27;;;;;;;4.50;4.30;;;22.20;46.60;;;;;;5035424;28;21864;-67
2023/06/09 02:09:54;;;;;;;4.10;3.90;;;22.20;46.60;;;;;;5031241;28;20529;-66
2023/06/09 02:12:19;;;;;;;4.63;4.43;;;22.20;46.60;;;;;;5040640;28;20570;-66
2023/06/09 02:14:45;;;;;;;4.40;4.20;;;22.20;46.60;;;;;;5041342;28;20478;-66
2023/06/09 02:17:10;;;;;;;4.77;4.57;;;22.20;46.60;;;;;;5036554;28;20222;-66
2023/06/09 02:19:38;;;;;;;4.77;4.50;;;22.20;46.60;;;;;;5036511;28;20222;-66
2023/06/09 02:22:05;;;;;;;4.80;4.57;;;22.20;46.60;;;;;;5039406;28;20229;-66
2023/06/09 02:24:30;;;;;;;4.70;4.50;;;22.20;46.60;;;;;;5039523;28;21281;-66
2023/06/09 02:26:56;;;;;;;4.80;4.50;;;22.20;46.60;;;;;;5039913;28;20467;-66
2023/06/09 02:29:26;;;;;;;4.70;4.50;;;22.20;46.60;;;;;;5037541;28;20305;-66
2023/06/09 02:31:53;;;;;;;4.43;4.23;;;22.20;46.60;;;;;;5034987;28;20463;-66
2023/06/09 02:34:19;;;;;;;4.80;4.60;;;22.20;46.60;;;;;;5033917;28;20554;-66
2023/06/09 02:36:45;;;;;;;4.20;4.00;;;22.20;46.60;;;;;;5033422;28;20478;-66
2023/06/09 02:39:11;;;;;;;4.73;4.53;;;22.20;46.60;;;;;;5035726;28;20328;-66
2023/06/09 02:41:36;;;;;;;4.63;4.43;;;22.20;46.60;;;;;;5034304;28;20457;-66
2023/06/09 02:44:02;;;;;;;5.03;4.83;;;22.20;46.60;;;;;;5035940;28;20279;-66
2023/06/09 02:46:29;;;;;;;4.27;4.07;;;22.20;46.60;;;;;;5034043;28;20277;-66
2023/06/09 02:48:55;;;;;;;4.40;4.20;;;22.20;46.60;;;;;;5036360;28;20248;-66
2023/06/09 02:51:20;;;;;;;5.00;4.80;;;22.20;46.60;;;;;;5035727;28;20464;-66
2023/06/09 02:53:46;;;;;;;4.80;4.60;;;22.20;46.60;;;;;;5036883;28;21103;-66
2023/06/09 02:56:11;;;;;;;4.60;4.40;;;22.20;46.60;;;;;;5036989;28;20223;-66
2023/06/09 02:58:37;;;;;;;4.57;4.37;;;22.20;46.60;;;;;;5034865;28;20253;-66
2023/06/09 03:01:02;;;;;;;5.00;4.80;;;22.20;46.60;;;;;;5031674;28;20706;-66
2023/06/09 03:03:31;;;;;;;4.07;3.87;;;22.20;46.60;;;;;;5037099;28;20263;-66
2023/06/09 03:05:58;;;;;;;4.30;4.10;;;22.20;46.70;;;;;;5030364;28;20755;-66
2023/06/09 03:08:24;;;;;;;4.80;4.60;;;22.20;47.30;;;;;;5036451;28;20935;-66
2023/06/09 03:10:50;;;;;;;4.80;4.60;;;22.20;46.60;;;;;;5036084;28;20490;-66
2023/06/09 03:13:15;;;;;;;4.60;4.40;;;22.20;46.60;;;;;;5035391;28;20229;-66
2023/06/09 03:15:42;;;;;;;4.80;4.60;;;22.20;46.60;;;;;;5034622;28;20451;-66
2023/06/09 03:18:08;;;;;;;4.63;4.43;;;22.20;47.30;;;;;;5036257;28;20867;-66
2023/06/09 03:20:36;;;;;;;4.57;4.37;;;22.20;46.60;;;;;;5036725;28;20444;-66
2023/06/09 03:23:01;;;;;;;4.20;4.00;;;22.20;46.60;;;;;;5030849;28;20224;-66
2023/06/09 03:25:27;;;;;;;4.57;4.37;;;22.20;46.60;;;;;;5036579;28;20986;-66
2023/06/09 03:27:53;;;;;;;4.40;4.20;;;22.20;46.60;;;;;;5026366;28;20313;-66
2023/06/09 03:30:19;;;;;;;4.60;4.40;;;22.20;46.60;;;;;;5036283;28;20245;-66
2023/06/09 03:32:45;;;;;;;5.00;4.80;;;22.20;46.60;;;;;;5038301;28;20495;-66
2023/06/09 03:35:10;;;;;;;5.43;5.13;;;22.20;46.60;;;;;;5032345;28;20249;-66
2023/06/09 03:37:36;;;;;;;4.70;4.50;;;22.20;46.60;;;;;;5033067;28;20218;-66
2023/06/09 03:40:02;;;;;;;5.50;5.20;;;22.20;46.60;;;;;;5030462;28;20221;-66
2023/06/09 03:42:28;;;;;;;4.80;4.60;;;22.20;46.60;;;;;;5030293;28;20241;-66
2023/06/09 03:44:58;;;;;;;4.50;4.30;;;22.20;46.60;;;;;;5033012;28;20998;-66
2023/06/09 03:47:24;;;;;;;5.23;5.03;;;22.20;46.60;;;;;;5036755;28;20214;-66
2023/06/09 03:49:50;;;;;;;5.00;4.80;;;22.20;46.60;;;;;;5033588;28;20557;-66
2023/06/09 03:52:15;;;;;;;4.90;4.70;;;22.20;46.60;;;;;;5034356;28;20481;-66
2023/06/09 03:54:41;;;;;;;4.63;4.43;;;22.20;46.70;;;;;;5037523;28;20287;-66
2023/06/09 03:57:06;;;;;;;5.17;4.97;;;22.20;46.60;;;;;;5032086;28;20639;-66
2023/06/09 03:59:32;;;;;;;5.00;4.70;;;22.20;46.60;;;;;;5036831;28;20214;-66
2023/06/09 04:01:57;;;;;;;5.57;5.33;;;22.20;46.60;;;;;;5031383;28;20214;-66
2023/06/09 04:04:23;;;;;;;5.57;5.27;;;22.20;46.60;;;;;;5033946;28;20671;-66
2023/06/09 04:06:49;;;;;;;5.03;4.80;;;22.20;46.60;;;;;;5024597;28;20697;-66
2023/06/09 04:09:15;;;;;;;4.50;4.30;;;22.20;46.60;;;;;;5022025;28;20233;-66
2023/06/09 04:11:41;;;;;;;4.87;4.67;;;22.20;46.60;;;;;;5031121;28;20352;-66
2023/06/09 04:14:06;;;;;;;4.97;4.77;;;22.20;46.60;;;;;;5032810;28;20828;-67
2023/06/09 04:16:32;;;;;;;5.03;4.80;;;22.20;46.60;;;;;;5031432;28;20744;-66
2023/06/09 04:18:58;;;;;;;5.10;4.80;;;22.20;46.60;;;;;;5036763;28;20210;-68
2023/06/09 04:21:23;;;;;;;4.43;4.23;;;22.20;46.60;;;;;;5032884;28;20231;-67
2023/06/09 04:23:49;;;;;;;5.30;5.00;;;22.20;46.60;;;;;;5033918;28;20222;-67
2023/06/09 04:26:14;;;;;;;5.10;4.80;;;22.20;46.60;;;;;;5032310;28;20222;-67
2023/06/09 04:28:41;;;;;;;5.40;5.20;;;22.20;46.60;;;;;;5032408;28;20241;-67
2023/06/09 04:31:07;;;;;;;5.10;4.90;;;22.20;46.60;;;;;;5030080;28;20287;-67
2023/06/09 04:33:35;;;;;;;4.83;4.63;;;22.20;46.60;;;;;;5029365;28;20479;-66
2023/06/09 04:36:04;;;;;;;5.00;4.80;;;22.20;46.60;;;;;;5035679;28;20256;-66
2023/06/09 04:38:34;;;;;;;4.73;4.53;;;22.20;46.50;;;;;;5030486;28;21031;-67
2023/06/09 04:41:02;;;;;;;5.13;4.90;;;22.20;46.40;;;;;;5029915;28;20557;-68
2023/06/09 04:43:28;;;;;;;5.00;4.70;;;22.20;46.50;;;;;;5038032;28;20527;-66
2023/06/09 04:45:57;;;;;;;5.40;5.10;;;22.20;46.30;;;;;;5021097;28;21242;-66
2023/06/09 04:48:22;;;;;;;4.83;4.63;;;22.20;46.50;;;;;;5035599;28;20467;-66
2023/06/09 04:50:49;;;;;;;5.00;4.70;;;22.30;46.50;;;;;;5032201;28;20521;-68
2023/06/09 04:53:15;;;;;;;5.60;5.20;;;22.30;46.40;;;;;;5038219;28;20250;-66
2023/06/09 04:55:41;;;;;;;5.10;4.83;;;22.20;46.30;;;;;;5034431;28;20564;-66
2023/06/09 04:58:07;;;;;;;5.00;4.80;;;22.30;46.40;;;;;;5042394;28;20234;-67
2023/06/09 05:00:33;;;;;;;5.13;4.83;;;22.20;46.30;;;;;;5036231;28;20455;-68
2023/06/09 05:03:02;;;;;;;5.13;4.83;;;22.30;47.10;;;;;;5039702;28;20814;-68
2023/06/09 05:05:28;;;;;;;4.70;4.43;;;22.30;46.40;;;;;;5035586;28;20435;-66
2023/06/09 05:07:54;;;;;;;4.93;4.73;;;22.30;46.40;;;;;;5032253;28;20463;-69
2023/06/09 05:10:22;;;;;;;5.00;4.80;;;22.30;46.30;;;;;;5038887;28;20463;-67
2023/06/09 05:12:48;;;;;;;5.03;4.83;;;22.30;46.50;;;;;;5021198;28;20230;-65
2023/06/09 05:15:15;;;;;;;4.40;4.20;;;22.30;46.40;;;;;;5035470;28;20832;-65
2023/06/09 05:17:41;;;;;;;5.17;4.87;;;22.30;46.40;;;;;;5029477;28;20502;-65
2023/06/09 05:20:08;;;;;;;5.30;5.00;;;22.30;46.30;;;;;;5037434;28;20490;-65
2023/06/09 05:22:35;;;;;;;6.00;5.67;;;22.30;46.40;;;;;;5036352;28;20483;-65
2023/06/09 05:25:05;;;;;;;5.90;5.60;;;22.30;46.50;;;;;;5028761;28;21082;-65
2023/06/09 05:27:31;;;;;;;5.03;4.73;;;22.30;46.30;;;;;;5039360;28;20871;-65
2023/06/09 05:29:57;;;;;;;4.40;4.20;;;22.30;46.30;;;;;;5027795;28;20481;-65
2023/06/09 05:32:22;;;;;;;5.17;4.87;;;22.30;46.30;;;;;;5033196;28;20678;-65
2023/06/09 05:34:49;;;;;;;5.27;4.97;;;22.30;46.40;;;;;;5034362;28;20567;-65
2023/06/09 05:37:15;;;;;;;5.37;5.17;;;22.30;46.30;;;;;;5026188;28;20604;-65
2023/06/09 05:39:40;;;;;;;5.53;5.23;;;22.30;46.30;;;;;;5034021;28;20463;-65
2023/06/09 05:42:07;;;;;;;5.30;5.00;;;22.30;46.30;;;;;;5033436;28;20442;-65
2023/06/09 05:44:33;;;;;;;5.27;4.87;;;22.30;46.30;;;;;;5030522;28;20598;-65
2023/06/09 05:46:58;;;;;;;5.43;5.13;;;22.30;46.30;;;;;;5032421;28;20463;-64
2023/06/09 05:49:24;;;;;;;5.70;5.33;;;22.30;46.30;;;;;;5031905;28;20237;-65
2023/06/09 05:51:50;;;;;;;5.53;5.23;;;22.30;46.40;;;;;;5030837;28;20315;-65
2023/06/09 05:54:16;;;;;;;4.90;4.70;;;22.30;46.30;;;;;;5035248;28;20230;-66
2023/06/09 05:56:44;;;;;;;5.73;5.33;;;22.30;46.30;;;;;;5033973;28;22035;-65
2023/06/09 05:59:10;;;;;;;4.93;4.70;;;22.30;46.40;;;;;;5033634;28;20224;-65
2023/06/09 06:01:36;;;;;;;5.43;5.23;;;22.30;46.30;;;;;;5032400;28;20439;-65
2023/06/09 06:04:02;;;;;;;4.97;4.70;;;22.30;46.30;;;;;;5031549;28;20471;-65
2023/06/09 06:06:29;;;;;;;5.10;4.80;;;22.30;46.40;;;;;;5033091;28;21044;-66
2023/06/09 06:08:55;;;;;;;4.90;4.60;;;22.30;46.30;;;;;;5038990;28;20711;-65
2023/06/09 06:11:21;;;;;;;5.30;5.00;;;22.30;46.30;;;;;;5037930;28;20458;-66
2023/06/09 06:13:46;;;;;;;5.50;5.30;;;22.30;46.30;;;;;;5039696;28;20264;-65
2023/06/09 06:16:12;;;;;;;5.47;5.17;;;22.30;46.30;;;;;;5038211;28;20222;-65
2023/06/09 06:18:37;;;;;;;5.27;5.07;;;22.30;46.30;;;;;;5040554;28;20250;-66
2023/06/09 06:21:03;;;;;;;5.63;5.33;;;22.30;46.40;;;;;;5037750;28;20310;-66
2023/06/09 06:23:28;;;;;;;5.90;5.60;;;22.30;46.30;;;;;;5036311;28;20226;-66
2023/06/09 06:25:54;;;;;;;4.80;4.60;;;22.30;46.30;;;;;;5033620;28;20221;-65
2023/06/09 06:28:21;;;;;;;5.50;5.23;;;22.30;46.30;;;;;;5030744;28;20987;-65
2023/06/09 06:30:47;;;;;;;5.23;5.03;;;22.30;46.30;;;;;;5037457;28;20226;-65
2023/06/09 06:33:13;;;;;;;5.20;5.00;;;22.30;46.30;;;;;;5033283;28;20998;-66
2023/06/09 06:35:39;;;;;;;5.63;5.40;;;22.30;46.40;;;;;;5031419;28;20500;-67
2023/06/09 06:38:05;;;;;;;5.00;4.70;;;22.30;46.30;;;;;;5036788;28;20922;-67
2023/06/09 06:40:32;;;;;;;4.70;4.50;;;22.30;46.30;;;;;;5038115;28;20271;-66
2023/06/09 06:42:57;;;;;;;5.60;5.40;;;22.30;46.30;;;;;;5039085;28;20218;-66
2023/06/09 06:45:23;;;;;;;5.77;5.47;;;22.30;46.30;;;;;;5037578;28;20994;-66
2023/06/09 06:47:49;;;;;;;5.70;5.40;;;22.30;46.30;;;;;;5039965;28;20217;-66
2023/06/09 06:50:15;;;;;;;4.97;4.77;;;22.30;46.30;;;;;;5033557;28;20637;-66
2023/06/09 06:52:41;;;;;;;5.10;4.90;;;22.30;46.30;;;;;;5037786;28;20462;-66
2023/06/09 06:55:08;;;;;;;5.47;5.20;;;22.30;46.30;;;;;;5040192;28;20466;-66
2023/06/09 06:57:38;;;;;;;5.97;5.67;;;22.30;46.30;;;;;;5034057;28;20232;-66
2023/06/09 07:00:14;;;;;;;5.93;5.50;;;22.40;46.40;;;;;;5038069;28;20474;-66
2023/06/09 07:02:43;;;;;;;5.40;5.17;;;22.30;46.30;;;;;;5039122;28;20904;-66
2023/06/09 07:05:08;;;;;;;4.93;4.73;;;22.30;46.30;;;;;;5037782;28;20459;-66
2023/06/09 07:07:34;;;;;;;5.80;5.50;;;22.30;46.20;;;;;;5038731;28;21088;-66
2023/06/09 07:10:01;;;;;;;4.90;4.70;;;22.30;46.20;;;;;;5040146;28;20284;-66
2023/06/09 07:12:26;;;;;;;5.43;5.20;;;22.30;46.20;;;;;;5037997;28;20756;-66
2023/06/09 07:14:52;;;;;;;4.97;4.67;;;22.40;46.30;;;;;;5035658;28;20483;-66
2023/06/09 07:17:17;;;;;;;5.13;4.93;;;22.40;46.30;;;;;;5040605;28;20296;-66
2023/06/09 07:19:43;;;;;;;4.90;4.70;;;22.40;46.30;;;;;;5037320;28;20284;-66
2023/06/09 07:22:09;;;;;;;5.30;5.10;;;22.30;46.20;;;;;;5037120;28;20246;-66
2023/06/09 07:24:35;;;;;;;5.30;5.00;;;22.40;46.30;;;;;;5036136;28;20233;-66
2023/06/09 07:27:00;;;;;;;5.23;5.00;;;22.40;46.30;;;;;;5038243;28;20467;-66
2023/06/09 07:29:27;;;;;;;5.60;5.40;;;22.40;46.30;;;;;;5042264;28;20225;-66
2023/06/09 07:31:52;;;;;;;4.93;4.73;;;22.40;46.30;;;;;;5035368;28;20708;-66
2023/06/09 07:34:18;;;;;;;5.37;5.10;;;22.40;46.30;;;;;;5036632;28;20470;-66
2023/06/09 07:36:50;;;;;;;5.20;4.70;;;22.40;46.20;;;;;;5014374;28;20324;-66
2023/06/09 07:39:19;;;;;;;5.23;5.03;;;22.40;46.20;;;;;;5039628;28;20211;-66
2023/06/09 07:41:44;;;;;;;5.63;5.33;;;22.40;46.20;;;;;;5033604;28;20462;-66
2023/06/09 07:44:10;;;;;;;5.47;5.20;;;22.40;46.20;;;;;;5038039;28;20829;-66
2023/06/09 07:46:35;;;;;;;4.93;4.73;;;22.40;46.20;;;;;;5035608;28;20257;-66
2023/06/09 07:49:01;;;;;;;5.30;5.10;;;22.40;46.20;;;;;;5037486;28;20222;-66
2023/06/09 07:51:29;;;;;;;5.50;5.10;;;22.40;46.20;;;;;;5033488;28;20226;-66
2023/06/09 07:53:54;;;;;;;5.63;5.30;;;22.40;46.20;;;;;;5040497;28;20461;-66
2023/06/09 07:56:20;;;;;;;5.20;4.97;;;22.40;46.20;;;;;;5032994;28;20459;-66
2023/06/09 07:58:46;;;;;;;5.83;5.53;;;22.40;46.20;;;;;;5038384;28;20296;-66
2023/06/09 08:01:11;;;;;;;5.13;4.93;;;22.40;46.20;;;;;;5038117;28;20305;-66
2023/06/09 08:03:37;;;;;;;5.10;4.90;;;22.40;46.20;;;;;;5036756;28;20872;-66
2023/06/09 08:06:04;;;;;;;6.13;5.83;;;22.40;47.00;;;;;;5035301;28;20327;-66
2023/06/09 08:08:31;;;;;;;5.20;4.90;;;22.40;46.20;;;;;;5032830;28;20477;-66
2023/06/09 08:11:00;;;;;;;5.43;5.13;;;22.40;46.20;;;;;;5026779;28;20476;-66
2023/06/09 08:13:25;;;;;;;6.17;5.87;;;22.40;46.20;;;;;;5033236;28;20573;-67
2023/06/09 08:15:51;;;;;;;5.63;5.33;;;22.40;46.20;;;;;;5034467;28;20534;-66
2023/06/09 08:18:16;;;;;;;4.93;4.73;;;22.40;46.20;;;;;;5034346;28;20244;-67
2023/06/09 08:20:42;;;;;;;5.10;4.90;;;22.40;46.20;;;;;;5032591;28;20230;-66
2023/06/09 08:23:08;;;;;;;5.13;4.93;;;22.40;46.20;;;;;;5036749;28;20240;-65
2023/06/09 08:25:35;;;;;;;5.17;4.97;;;22.40;46.20;;;;;;5033427;28;21007;-66
2023/06/09 08:28:00;;;;;;;5.00;4.80;;;22.40;46.20;;;;;;5035660;28;20978;-66
2023/06/09 08:30:26;;;;;;;5.10;4.87;;;22.40;46.20;;;;;;5035064;28;20478;-66
2023/06/09 08:32:52;;;;;;;5.63;5.33;;;22.40;46.10;;;;;;5033851;28;20222;-66
2023/06/09 08:35:18;;;;;;;4.80;4.60;;;22.40;46.20;;;;;;5034116;28;20462;-66
2023/06/09 08:37:44;;;;;;;5.20;4.97;;;22.40;46.10;;;;;;5038010;28;20226;-66
2023/06/09 08:40:10;;;;;;;4.97;4.77;;;22.40;46.20;;;;;;5035168;28;20218;-66
2023/06/09 08:42:37;;;;;;;4.80;4.60;;;22.40;46.20;;;;;;5035567;28;20454;-66
2023/06/09 08:45:04;;;;;;;5.13;4.93;;;22.40;46.20;;;;;;5034666;28;20974;-66
2023/06/09 08:47:32;;;;;;;5.20;4.90;;;22.40;46.20;;;;;;5028665;28;20502;-65
2023/06/09 08:49:59;;;;;;;5.40;5.10;;;22.40;46.20;;;;;;5034034;28;21531;-67
2023/06/09 08:52:26;;;;;;;5.23;5.00;;;22.40;46.20;;;;;;5032319;28;20885;-67
2023/06/09 08:54:53;;;;;;;5.40;5.20;;;22.40;46.20;;;;;;5026845;28;20484;-66
2023/06/09 08:57:20;;;;;;;4.53;4.33;;;22.40;46.10;;;;;;5035772;28;20490;-66
2023/06/09 08:59:50;;;;;;;5.10;4.87;;;22.40;46.20;;;;;;5037584;28;20620;-67
2023/06/09 09:02:16;;;;;;;4.83;4.63;;;22.40;46.10;;;;;;5039341;28;21056;-66
2023/06/09 09:04:42;;;;;;;5.70;5.40;;;22.40;46.20;;;;;;5038126;28;20443;-66
2023/06/09 09:07:09;;;;;;;4.47;4.27;;;22.40;46.20;;;;;;5035495;28;20532;-65
2023/06/09 09:09:35;;;;;;;5.20;5.00;;;22.40;46.20;;;;;;5035328;28;20517;-66
2023/06/09 09:12:04;;;;;;;4.70;4.50;;;22.40;46.20;;;;;;5032955;28;20510;-66
2023/06/09 09:14:30;;;;;;;5.30;5.10;;;22.40;46.20;;;;;;5032130;28;20717;-66
2023/06/09 09:16:55;;;;;;;5.20;4.90;;;22.40;46.10;;;;;;5031364;28;20467;-66
2023/06/09 09:19:26;;;;;;;5.47;5.20;;;22.40;46.10;;;;;;5034589;28;20705;-66
2023/06/09 09:21:53;;;;;;;5.30;5.00;;;22.40;46.20;;;;;;5032776;28;20240;-66
2023/06/09 09:24:19;;;;;;;5.63;5.37;;;22.40;46.10;;;;;;5033203;28;20545;-66
2023/06/09 09:26:44;;;;;;;4.70;4.50;;;22.50;46.20;;;;;;5032451;28;20479;-66
2023/06/09 09:29:10;;;;;;;4.60;4.40;;;22.50;46.20;;;;;;5034055;28;20238;-66
2023/06/09 09:31:41;;;;;;;5.00;4.80;;;22.40;46.20;;;;;;5019700;28;20222;-66
2023/06/09 09:34:14;;;;;;;5.20;5.00;;;22.50;46.20;;;;;;5037039;28;20260;-66
2023/06/09 09:36:45;;;;;;;4.63;4.43;;;22.40;46.20;;;;;;5028292;28;20439;-66
2023/06/09 09:39:11;;;;;;;5.20;5.00;;;22.40;46.20;;;;;;5033446;28;22074;-66
2023/06/09 09:41:36;;;;;;;4.77;4.57;;;22.50;46.20;;;;;;5033038;28;20466;-66
2023/06/09 09:44:02;;;;;;;5.20;5.00;;;22.40;46.20;;;;;;5041509;28;20459;-66
2023/06/09 09:46:35;;;;;;;5.00;4.80;;;22.50;46.30;;;;;;5036594;28;20213;-66
2023/06/09 09:49:01;;;;;;;5.00;4.80;;;22.50;46.20;;;;;;5032934;28;20214;-66
2023/06/09 09:51:27;;;;;;;5.23;4.93;;;22.50;46.20;;;;;;5030750;28;21768;-66
2023/06/09 09:53:57;;;;;;;4.80;4.60;;;22.50;46.20;;;;;;5039850;28;20463;-66
2023/06/09 09:56:23;;;;;;;4.70;4.50;;;22.50;46.30;;;;;;5034627;28;20455;-67
2023/06/09 09:58:52;;;;;;;5.60;5.40;;;22.50;46.20;;;;;;5041342;28;20466;-67
2023/06/09 10:01:21;;;;;;;4.60;4.40;;;22.50;46.20;;;;;;5038193;28;20634;-66
2023/06/09 10:03:48;;;;;;;4.97;4.67;;;22.50;46.20;;;;;;5040298;28;20529;-66
2023/06/09 10:06:18;;;;;;;4.83;4.63;;;22.50;46.20;;;;;;5032779;28;20470;-66
2023/06/09 10:08:45;;;;;;;4.80;4.60;;;22.50;46.20;;;;;;5037384;28;21437;-66
2023/06/09 10:11:12;;;;;;;4.63;4.43;;;22.50;46.20;;;;;;5036559;28;20467;-66
2023/06/09 10:13:38;;;;;;;4.60;4.40;;;22.50;46.20;;;;;;5034614;28;20952;-66
2023/06/09 10:16:04;;;;;;;4.30;4.10;;;22.50;46.30;;;;;;5039534;28;20482;-66
2023/06/09 10:18:32;;;;;;;4.80;4.60;;;22.50;46.20;;;;;;5037210;28;20824;-66
2023/06/09 10:20:58;;;;;;;4.70;4.50;;;22.50;47.00;;;;;;5041947;28;20993;-66
2023/06/09 10:23:25;;;;;;;4.87;4.67;;;22.50;46.20;;;;;;5041101;28;20494;-66
2023/06/09 10:25:51;;;;;;;4.80;4.60;;;22.50;46.20;;;;;;5035120;28;20214;-66
2023/06/09 10:28:18;;;;;;;5.10;4.83;;;22.50;46.20;;;;;;5038352;28;20451;-66
2023/06/09 10:30:45;;;;;;;5.00;4.80;;;22.50;46.20;;;;;;5040401;28;20553;-66
2023/06/09 10:33:28;;;;;;;4.90;4.70;;;22.50;46.90;;;;;;5040241;28;20455;-67
2023/06/09 10:35:59;;;;;;;5.00;4.80;;;22.50;46.20;;;;;;5038876;28;20458;-66
2023/06/09 10:38:35;;;;;;;5.37;5.17;;;22.50;46.20;;;;;;5036661;28;20459;-66
2023/06/09 10:41:32;;;;;;;4.97;4.77;;;22.50;46.20;;;;;;5035494;28;21430;-66
2023/06/09 10:44:33;;;;;;;4.60;4.40;;;22.50;46.20;;;;;;5022699;28;20543;-66
2023/06/09 10:46:59;;;;;;;4.40;4.20;;;22.50;46.20;;;;;;5028250;28;20996;-66
2023/06/09 10:49:24;;;;;;;4.53;4.33;;;22.50;46.10;;;;;;5032587;28;20456;-66
2023/06/09 10:51:50;;;;;;;4.50;4.30;;;22.50;46.20;;;;;;5038179;28;20575;-66
2023/06/09 10:54:20;;;;;;;4.63;4.43;;;22.50;46.90;;;;;;5039515;28;20792;-66
2023/06/09 10:56:52;;;;;;;4.80;4.53;;;22.50;46.10;;;;;;5035921;28;21575;-66
2023/06/09 10:59:23;;;;;;;4.37;4.17;;;22.50;46.10;;;;;;5041049;28;21611;-67
2023/06/09 11:02:01;;;;;;;4.80;4.60;;;22.50;46.10;;;;;;5027836;28;20467;-66
2023/06/09 11:04:44;;;;;;;6.33;5.87;;;22.50;46.10;;;;;;5040043;28;20467;-66
2023/06/09 11:07:12;;;;;;;4.60;4.40;;;22.50;46.10;;;;;;5039013;28;20452;-66
2023/06/09 11:09:38;;;;;;;4.57;4.37;;;22.50;46.10;;;;;;5041268;28;20454;-66
2023/06/09 11:12:05;;;;;;;4.30;4.10;;;22.60;46.20;;;;;;5036561;28;20467;-66
2023/06/09 11:14:46;;;;;;;4.83;4.53;;;22.50;46.10;;;;;;5040357;28;20467;-66
2023/06/09 11:17:25;;;;;;;4.60;4.40;;;22.60;46.20;;;;;;5041405;28;20573;-66
2023/06/09 11:20:09;;;;;;;5.67;5.40;;;22.50;46.00;;;;;;5039898;28;21058;-66
2023/06/09 11:22:41;;;;;;;4.87;4.63;;;22.50;46.10;;;;;;5033931;28;20447;-66
2023/06/09 11:25:08;;;;;;;4.70;4.40;;;22.60;46.20;;;;;;5037394;28;20478;-66
2023/06/09 11:27:34;;;;;;;5.30;5.07;;;22.50;46.00;;;;;;5033532;28;20443;-66
2023/06/09 11:30:33;;;;;;;5.13;4.83;;;22.50;46.10;;;;;;5037617;28;20470;-67
2023/06/09 11:33:00;;;;;;;5.63;5.33;;;22.60;46.10;;;;;;5025483;28;20568;-67
2023/06/09 11:35:29;;;;;;;5.70;5.40;;;22.60;46.20;;;;;;5032367;28;20459;-66
2023/06/09 11:37:56;;;;;;;4.90;4.60;;;22.60;46.20;;;;;;5031046;28;20459;-66
2023/06/09 11:40:22;;;;;;;5.73;5.43;;;22.60;46.20;;;;;;5033114;28;20893;-69
2023/06/09 11:42:48;;;;;;;5.53;5.23;;;22.60;46.20;;;;;;5037299;28;20447;-68
2023/06/09 11:45:15;;;;;;;5.50;5.20;;;22.60;46.20;;;;;;5029113;28;21027;-67
2023/06/09 11:47:41;;;;;;;5.10;4.90;;;22.60;46.10;;;;;;5033180;28;20332;-67
2023/06/09 11:50:11;;;;;;;5.60;5.30;;;22.60;47.00;;;;;;5034778;28;21117;-68
2023/06/09 11:52:40;;;;;;;5.30;5.00;;;22.60;46.20;;;;;;5035765;28;20450;-68
2023/06/09 11:55:06;;;;;;;5.23;4.93;;;22.60;46.10;;;;;;5037615;28;20451;-66
2023/06/09 11:57:33;;;;;;;5.20;4.90;;;22.60;46.10;;;;;;5036286;28;20491;-66
2023/06/09 11:59:59;;;;;;;5.67;5.37;;;22.60;46.10;;;;;;5034162;28;20511;-66
2023/06/09 12:02:27;;;;;;;5.30;5.00;;;22.60;46.10;;;;;;5035726;28;21214;-66
2023/06/09 12:04:53;;;;;;;5.33;5.03;;;22.60;46.10;;;;;;5032375;28;20275;-66
2023/06/09 12:07:19;;;;;;;5.67;5.37;;;22.60;46.20;;;;;;5037734;28;20451;-66
2023/06/09 12:09:53;;;;;;;5.50;5.10;;;22.60;46.10;;;;;;5039008;28;20222;-66
2023/06/09 12:12:18;;;;;;;5.13;4.93;;;22.60;46.10;;;;;;5030312;28;20220;-66
2023/06/09 12:14:44;;;;;;;5.40;5.10;;;22.60;46.20;;;;;;5037076;28;20467;-67
2023/06/09 12:17:09;;;;;;;6.67;6.17;;;22.60;46.10;;;;;;5030461;28;20686;-67
2023/06/09 12:19:35;;;;;;;7.00;6.50;;;22.60;46.10;;;;;;5026561;28;20230;-66
2023/06/09 12:22:01;;;;;;;6.43;6.00;;;22.60;46.10;;;;;;5038429;28;20783;-66
2023/06/09 12:24:27;;;;;;;6.37;6.00;;;22.60;46.10;;;;;;5037784;28;20451;-66
2023/06/09 12:26:53;;;;;;;6.37;5.80;;;22.60;46.10;;;;;;5035679;28;20222;-66
2023/06/09 12:29:25;;;;;;;6.27;5.87;;;22.60;46.10;;;;;;5039372;28;20455;-66
2023/06/09 12:31:51;;;;;;;6.90;6.50;;;22.60;46.10;;;;;;5031523;28;20221;-66
2023/06/09 12:34:24;;;;;;;6.83;6.33;;;22.60;46.10;;;;;;5034898;28;20490;-66
2023/06/09 12:36:50;;;;;;;5.87;5.53;;;22.60;46.10;;;;;;5033887;28;20293;-67
2023/06/09 12:39:20;;;;;;;7.10;6.60;;;22.60;46.10;;;;;;5039931;28;20459;-66
2023/06/09 12:41:45;;;;;;;7.27;6.77;;;22.60;46.10;;;;;;5034653;28;20241;-66
2023/06/09 12:44:22;;;;;;;7.43;6.73;;;22.60;46.10;;;;;;5038812;28;20490;-66
2023/06/09 12:46:55;;;;;;;7.27;6.67;;;22.60;46.10;;;;;;5032977;28;20822;-66
2023/06/09 12:49:31;;;;;;;6.50;6.20;;;22.60;46.10;;;;;;5038005;28;20553;-66
2023/06/09 12:51:58;;;;;;;7.80;7.10;;;22.60;46.10;;;;;;5031842;28;20454;-66